createdAt,value
2018-10-05T00:00:01.497Z,23.15
2018-10-05T00:02:28.967Z,21.82
2018-10-05T00:04:57.379Z,24.02
2018-10-05T00:07:30.242Z,23.30
2018-10-05T00:09:58.397Z,23.55
2018-10-05T00:12:26.740Z,24.47
2018-10-05T00:14:54.247Z,24.18
2018-10-05T00:17:23.436Z,25.08
2018-10-05T00:19:51.894Z,22.07
2018-10-05T00:24:51.823Z,23.07
2018-10-05T00:27:19.684Z,24.72
2018-10-05T00:29:47.399Z,23.38
2018-10-05T00:32:14.846Z,23.83
2018-10-05T00:34:43.336Z,21.95
2018-10-05T00:37:11.380Z,24.63
2018-10-05T00:39:38.828Z,21.75
2018-10-05T00:42:06.453Z,25.57
2018-10-05T00:44:38.336Z,22.77
2018-10-05T00:47:05.895Z,25.70
2018-10-05T00:49:34.865Z,25.02
2018-10-05T00:52:02.589Z,25.40
2018-10-05T00:54:30.547Z,24.95
2018-10-05T00:56:57.962Z,24.00
2018-10-05T00:59:29.883Z,24.23
2018-10-05T01:01:57.595Z,23.30
2018-10-05T01:04:25.030Z,24.77
2018-10-05T01:06:52.685Z,22.37
2018-10-05T01:09:21.091Z,24.63
2018-10-05T01:11:48.516Z,25.37
2018-10-05T01:14:17.144Z,22.13
2018-10-05T01:16:44.525Z,26.20
2018-10-05T01:19:16.495Z,23.52
2018-10-05T01:21:44.461Z,28.02
2018-10-05T01:24:11.994Z,30.05
2018-10-05T01:26:39.788Z,32.08
2018-10-05T01:31:39.908Z,25.20
2018-10-05T01:34:07.371Z,24.45
2018-10-05T01:36:34.929Z,26.40
2018-10-05T01:39:04.368Z,23.50
2018-10-05T01:41:32.930Z,23.83
2018-10-05T01:44:00.314Z,25.20
2018-10-05T01:46:28.006Z,24.72
2018-10-05T01:48:55.647Z,22.02
2018-10-05T01:51:28.160Z,22.10
2018-10-05T01:54:01.446Z,23.47
2018-10-05T01:56:35.729Z,28.07
2018-10-05T01:59:04.025Z,24.77
2018-10-05T02:01:35.355Z,26.15
2018-10-05T02:04:03.189Z,23.55
2018-10-05T02:06:31.322Z,25.02
2018-10-05T02:11:34.662Z,23.15
2018-10-05T02:14:06.593Z,22.10
2018-10-05T02:16:34.312Z,25.00
2018-10-05T02:19:07.317Z,24.67
2018-10-05T02:21:35.323Z,24.52
2018-10-05T02:24:02.847Z,25.97
2018-10-05T02:26:35.367Z,23.85
2018-10-05T02:29:04.258Z,35.43
2018-10-05T02:31:34.407Z,40.67
2018-10-05T02:34:02.029Z,24.47
2018-10-05T02:36:29.461Z,27.82
2018-10-05T02:38:57.668Z,29.72
2018-10-05T02:41:25.488Z,27.95
2018-10-05T02:43:53.391Z,29.70
2018-10-05T02:46:21.905Z,36.23
2018-10-05T02:48:54.464Z,35.38
2018-10-05T02:51:22.111Z,34.38
2018-10-05T02:53:54.521Z,31.25
2018-10-05T02:56:22.035Z,25.45
2018-10-05T02:58:50.317Z,30.15
2018-10-05T03:01:23.179Z,31.52
2018-10-05T03:03:50.744Z,25.32
2018-10-05T03:06:18.279Z,25.82
2018-10-05T03:08:46.039Z,25.02
2018-10-05T03:11:14.026Z,22.48
2018-10-05T03:13:42.712Z,22.77
2018-10-05T03:16:14.802Z,22.32
2018-10-05T03:18:42.175Z,23.15
2018-10-05T03:21:14.517Z,22.45
2018-10-05T03:23:42.839Z,20.72
2018-10-05T03:26:15.722Z,25.45
2018-10-05T03:28:47.958Z,21.68
2018-10-05T03:31:15.453Z,25.30
2018-10-05T03:33:46.994Z,21.25
2018-10-05T03:36:14.826Z,22.15
2018-10-05T03:38:42.330Z,23.00
2018-10-05T03:41:09.750Z,25.17
2018-10-05T03:43:38.212Z,21.33
2018-10-05T03:46:07.767Z,23.77
2018-10-05T03:48:35.240Z,22.17
2018-10-05T03:51:03.118Z,21.70
2018-10-05T03:53:30.615Z,26.73
2018-10-05T03:55:58.325Z,21.82
2018-10-05T03:58:35.406Z,21.50
2018-10-05T04:03:31.279Z,21.55
2018-10-05T04:06:00.811Z,20.90
2018-10-05T04:08:36.583Z,21.97
2018-10-05T04:11:04.590Z,21.10
2018-10-05T04:13:31.899Z,20.90
2018-10-05T04:18:30.222Z,21.52
2018-10-05T04:30:37.630Z,20.77
2018-10-05T04:33:17.629Z,22.05
2018-10-05T04:35:45.064Z,21.60
2018-10-05T04:38:15.000Z,24.65
2018-10-05T04:40:46.550Z,23.62
2018-10-05T04:43:14.277Z,22.60
2018-10-05T04:45:41.696Z,26.90
2018-10-05T04:48:10.073Z,22.50
2018-10-05T04:50:39.405Z,22.50
2018-10-05T04:53:07.460Z,20.40
2018-10-05T04:55:35.794Z,20.37
2018-10-05T04:58:04.099Z,23.75
2018-10-05T05:02:59.651Z,20.17
2018-10-05T05:05:27.082Z,21.80
2018-10-05T05:07:54.488Z,20.90
2018-10-05T05:10:21.732Z,23.50
2018-10-05T05:12:49.011Z,22.50
2018-10-05T05:15:16.447Z,20.23
2018-10-05T05:17:43.730Z,23.80
2018-10-05T05:20:11.079Z,20.25
2018-10-05T05:22:38.371Z,21.70
2018-10-05T05:25:05.687Z,21.42
2018-10-05T05:27:33.039Z,20.32
2018-10-05T05:30:00.343Z,20.32
2018-10-05T05:32:27.650Z,20.80
2018-10-05T05:34:54.976Z,19.27
2018-10-05T05:37:22.279Z,21.17
2018-10-05T05:39:50.337Z,22.15
2018-10-05T05:42:17.645Z,23.57
2018-10-05T05:44:44.940Z,21.25
2018-10-05T05:47:12.227Z,20.35
2018-10-05T05:49:39.567Z,20.92
2018-10-05T05:52:06.904Z,22.80
2018-10-05T05:54:34.720Z,20.88
2018-10-05T05:57:01.954Z,23.80
2018-10-05T05:59:30.351Z,22.15
2018-10-05T06:01:57.688Z,21.62
2018-10-05T06:04:25.721Z,21.57
2018-10-05T06:06:53.101Z,21.77
2018-10-05T06:09:20.382Z,21.52
2018-10-05T06:11:47.700Z,21.25
2018-10-05T06:14:14.989Z,21.17
2018-10-05T06:16:42.295Z,19.05
2018-10-05T06:19:09.582Z,20.95
2018-10-05T06:21:36.910Z,22.35
2018-10-05T06:24:04.176Z,20.80
2018-10-05T06:26:31.450Z,20.72
2018-10-05T06:28:58.718Z,19.20
2018-10-05T06:31:26.203Z,21.15
2018-10-05T06:33:53.486Z,22.40
2018-10-05T06:36:20.875Z,21.97
2018-10-05T06:38:48.215Z,21.50
2018-10-05T06:41:15.603Z,22.22
2018-10-05T06:43:42.922Z,21.55
2018-10-05T06:46:10.388Z,22.35
2018-10-05T06:48:38.173Z,23.15
2018-10-05T06:51:05.538Z,21.17
2018-10-05T06:53:32.972Z,22.50
2018-10-05T06:56:00.274Z,22.35
2018-10-05T06:58:27.665Z,20.50
2018-10-05T07:00:54.986Z,22.40
2018-10-05T07:03:22.303Z,22.70
2018-10-05T07:05:50.162Z,19.55
2018-10-05T07:08:17.480Z,22.90
2018-10-05T07:10:44.795Z,21.60
2018-10-05T07:13:12.100Z,23.35
2018-10-05T07:15:39.775Z,21.68
2018-10-05T07:18:07.511Z,23.85
2018-10-05T07:20:34.790Z,21.12
2018-10-05T07:23:02.154Z,24.27
2018-10-05T07:25:29.464Z,22.05
2018-10-05T07:27:56.900Z,21.70
2018-10-05T07:30:24.233Z,25.12
2018-10-05T07:32:51.592Z,23.45
2018-10-05T07:35:18.888Z,21.75
2018-10-05T07:37:46.193Z,23.32
2018-10-05T07:40:13.493Z,21.90
2018-10-05T07:42:41.154Z,20.75
2018-10-05T07:45:08.469Z,22.45
2018-10-05T07:47:35.806Z,22.32
2018-10-05T07:50:03.254Z,22.13
2018-10-05T07:52:30.539Z,21.48
2018-10-05T07:54:57.915Z,18.67
2018-10-05T07:57:25.292Z,21.73
2018-10-05T07:59:52.602Z,19.20
2018-10-05T08:02:19.903Z,19.23
2018-10-05T08:04:47.849Z,22.30
2018-10-05T08:07:15.252Z,19.70
2018-10-05T08:09:42.724Z,20.48
2018-10-05T08:12:09.943Z,19.70
2018-10-05T08:14:37.276Z,18.45
2018-10-05T08:17:04.837Z,21.95
2018-10-05T08:19:32.156Z,20.80
2018-10-05T08:21:59.415Z,19.50
2018-10-05T08:24:26.735Z,20.45
2018-10-05T08:26:54.112Z,19.98
2018-10-05T08:29:21.464Z,20.88
2018-10-05T08:31:48.817Z,19.15
2018-10-05T08:34:16.175Z,19.50
2018-10-05T08:36:43.412Z,20.40
2018-10-05T08:39:11.940Z,22.10
2018-10-05T08:41:39.271Z,21.35
2018-10-05T08:44:06.545Z,20.00
2018-10-05T08:46:33.980Z,22.40
2018-10-05T08:49:01.266Z,22.13
2018-10-05T08:51:29.350Z,21.27
2018-10-05T08:53:56.751Z,23.50
2018-10-05T08:56:24.434Z,20.88
2018-10-05T08:58:51.722Z,20.00
2018-10-05T09:01:19.019Z,21.90
2018-10-05T09:03:46.474Z,23.05
2018-10-05T09:06:13.768Z,20.00
2018-10-05T09:08:41.055Z,19.32
2018-10-05T09:11:08.364Z,23.18
2018-10-05T09:13:35.666Z,19.07
2018-10-05T09:16:03.005Z,20.37
2018-10-05T09:18:30.307Z,20.12
2018-10-05T09:20:57.608Z,19.55
2018-10-05T09:23:24.866Z,20.55
2018-10-05T09:25:52.289Z,22.27
2018-10-05T09:28:19.600Z,22.50
2018-10-05T09:30:46.971Z,21.97
2018-10-05T09:33:14.207Z,20.85
2018-10-05T09:35:41.724Z,21.35
2018-10-05T09:38:09.119Z,24.92
2018-10-05T09:40:37.206Z,19.42
2018-10-05T09:43:04.539Z,20.08
2018-10-05T09:45:32.152Z,18.70
2018-10-05T09:47:59.490Z,20.68
2018-10-05T09:50:26.831Z,23.32
2018-10-05T09:52:54.143Z,20.95
2018-10-05T09:55:21.467Z,23.38
2018-10-05T09:57:49.082Z,21.82
2018-10-05T10:00:22.464Z,20.40
2018-10-05T10:02:55.392Z,23.60
2018-10-05T10:05:23.880Z,23.47
2018-10-05T10:07:52.366Z,19.20
2018-10-05T10:10:24.336Z,21.95
2018-10-05T10:12:51.705Z,19.20
2018-10-05T10:15:19.540Z,21.77
2018-10-05T10:17:46.921Z,20.75
2018-10-05T10:20:18.811Z,18.77
2018-10-05T10:22:46.234Z,24.80
2018-10-05T10:25:13.631Z,22.10
2018-10-05T10:27:45.564Z,19.32
2018-10-05T10:30:14.516Z,19.23
2018-10-05T10:32:43.541Z,24.20
2018-10-05T10:35:11.042Z,18.85
2018-10-05T10:37:43.242Z,18.67
2018-10-05T10:40:11.804Z,20.55
2018-10-05T10:42:39.415Z,17.90
2018-10-05T10:45:07.503Z,19.10
2018-10-05T10:47:35.695Z,19.73
2018-10-05T10:50:08.260Z,19.20
2018-10-05T10:52:37.006Z,18.32
2018-10-05T10:55:04.555Z,17.42
2018-10-05T10:57:32.484Z,20.55
2018-10-05T11:00:00.285Z,18.12
2018-10-05T11:02:32.700Z,21.03
2018-10-05T11:07:28.033Z,17.90
2018-10-05T11:12:23.722Z,20.17
2018-10-05T11:14:51.716Z,17.52
2018-10-05T11:17:19.896Z,17.87
2018-10-05T11:19:47.885Z,17.00
2018-10-05T11:22:20.125Z,23.00
2018-10-05T11:24:47.459Z,18.67
2018-10-05T11:27:15.511Z,21.80
2018-10-05T11:29:42.934Z,21.77
2018-10-05T11:32:10.568Z,19.67
2018-10-05T11:34:38.988Z,17.20
2018-10-05T11:37:07.063Z,18.97
2018-10-05T11:42:11.831Z,17.87
2018-10-05T11:44:39.770Z,16.00
2018-10-05T11:47:07.196Z,20.77
2018-10-05T11:49:35.520Z,19.90
2018-10-05T11:52:03.506Z,17.77
2018-10-05T11:54:31.643Z,19.40
2018-10-05T11:56:59.117Z,16.83
2018-10-05T11:59:26.873Z,18.63
2018-10-05T12:01:54.242Z,17.87
2018-10-05T12:04:21.562Z,20.63
2018-10-05T12:06:49.019Z,18.10
2018-10-05T12:09:17.280Z,18.07
2018-10-05T12:11:44.600Z,22.80
2018-10-05T12:14:12.042Z,16.57
2018-10-05T12:16:39.353Z,19.07
2018-10-05T12:19:06.663Z,19.27
2018-10-05T12:21:34.095Z,17.20
2018-10-05T12:24:01.556Z,19.13
2018-10-05T12:26:28.923Z,24.20
2018-10-05T12:28:56.266Z,18.90
2018-10-05T12:31:23.813Z,18.30
2018-10-05T12:33:51.333Z,17.30
2018-10-05T12:36:18.619Z,17.03
2018-10-05T12:38:45.899Z,17.43
2018-10-05T12:41:13.256Z,17.10
2018-10-05T12:43:40.675Z,21.17
2018-10-05T12:46:08.075Z,17.40
2018-10-05T12:48:35.357Z,19.37
2018-10-05T12:51:02.760Z,18.40
2018-10-05T12:53:30.114Z,18.97
2018-10-05T12:58:30.164Z,20.37
2018-10-05T13:00:57.592Z,20.30
2018-10-05T13:03:24.962Z,24.40
2018-10-05T13:05:52.299Z,18.43
2018-10-05T13:08:19.642Z,21.80
2018-10-05T13:10:47.146Z,15.70
2018-10-05T13:13:14.467Z,20.70
2018-10-05T13:15:41.820Z,17.80
2018-10-05T13:18:09.352Z,16.93
2018-10-05T13:20:36.707Z,20.87
2018-10-05T13:23:04.087Z,16.47
2018-10-05T13:25:31.500Z,17.70
2018-10-05T13:27:58.859Z,18.53
2018-10-05T13:30:26.216Z,15.80
2018-10-05T13:32:53.597Z,16.67
2018-10-05T13:35:20.946Z,18.00
2018-10-05T13:37:48.354Z,18.40
2018-10-05T13:40:15.709Z,18.00
2018-10-05T13:42:43.647Z,17.40
2018-10-05T13:45:11.251Z,16.80
2018-10-05T13:47:38.619Z,20.70
2018-10-05T13:50:07.551Z,17.10
2018-10-05T13:52:35.373Z,21.87
2018-10-05T13:55:02.856Z,16.40
2018-10-05T13:57:30.196Z,19.17
2018-10-05T13:59:57.565Z,20.50
2018-10-05T14:02:24.893Z,15.83
2018-10-05T14:04:52.257Z,17.13
2018-10-05T14:07:19.644Z,18.03
2018-10-05T14:09:46.950Z,17.20
2018-10-05T14:12:14.333Z,16.97
2018-10-05T14:14:41.678Z,22.83
2018-10-05T14:17:08.993Z,16.17
2018-10-05T14:19:36.287Z,15.57
2018-10-05T14:22:03.650Z,19.07
2018-10-05T14:24:30.947Z,21.30
2018-10-05T14:26:58.328Z,16.50
2018-10-05T14:29:25.657Z,17.57
2018-10-05T14:31:53.013Z,16.57
2018-10-05T14:34:20.361Z,19.03
2018-10-05T14:36:47.718Z,16.43
2018-10-05T14:39:15.066Z,19.27
2018-10-05T14:41:42.429Z,18.90
2018-10-05T14:44:09.775Z,16.20
2018-10-05T14:46:37.116Z,17.30
2018-10-05T14:49:04.604Z,16.80
2018-10-05T14:51:31.943Z,15.60
2018-10-05T14:53:59.357Z,15.80
2018-10-05T14:56:26.723Z,16.83
2018-10-05T14:58:54.073Z,16.47
2018-10-05T15:01:21.484Z,17.40
2018-10-05T15:03:48.812Z,21.40
2018-10-05T15:06:16.209Z,17.07
2018-10-05T15:08:43.725Z,17.00
2018-10-05T15:11:11.192Z,18.40
2018-10-05T15:13:38.595Z,16.50
2018-10-05T15:16:06.539Z,16.40
2018-10-05T15:18:33.981Z,18.67
2018-10-05T15:21:01.335Z,15.60
2018-10-05T15:23:28.663Z,17.73
2018-10-05T15:25:56.081Z,16.87
2018-10-05T15:28:23.410Z,16.57
2018-10-05T15:30:50.766Z,17.03
2018-10-05T15:33:18.210Z,16.13
2018-10-05T15:35:45.556Z,17.00
2018-10-05T15:38:12.950Z,16.27
2018-10-05T15:40:40.327Z,16.37
2018-10-05T15:43:07.696Z,17.33
2018-10-05T15:45:35.068Z,16.63
2018-10-05T15:48:02.548Z,17.13
2018-10-05T15:50:30.028Z,16.57
2018-10-05T15:52:57.586Z,18.53
2018-10-05T15:55:24.895Z,18.30
2018-10-05T15:57:52.291Z,16.70
2018-10-05T16:00:19.656Z,21.30
2018-10-05T16:02:47.184Z,18.60
2018-10-05T16:05:14.602Z,19.23
2018-10-05T16:07:42.127Z,16.20
2018-10-05T16:10:09.455Z,17.87
2018-10-05T16:12:36.940Z,19.30
2018-10-05T16:15:04.264Z,18.23
2018-10-05T16:17:31.805Z,15.70
2018-10-05T16:19:59.613Z,18.50
2018-10-05T16:22:26.966Z,19.75
2018-10-05T16:24:54.400Z,18.40
2018-10-05T16:27:21.892Z,19.17
2018-10-05T16:29:49.362Z,18.40
2018-10-05T16:32:16.806Z,19.95
2018-10-05T16:34:44.556Z,19.32
2018-10-05T16:37:12.225Z,23.07
2018-10-05T16:39:39.924Z,23.67
2018-10-05T16:42:07.338Z,22.15
2018-10-05T16:44:34.705Z,19.12
2018-10-05T16:47:02.069Z,18.82
2018-10-05T16:49:29.722Z,20.55
2018-10-05T16:51:57.185Z,19.67
2018-10-05T16:54:25.292Z,21.55
2018-10-05T16:56:52.830Z,20.50
2018-10-05T16:59:20.215Z,18.87
2018-10-05T17:01:47.819Z,20.85
2018-10-05T17:04:19.684Z,20.12
2018-10-05T17:06:47.146Z,18.87
2018-10-05T17:09:15.440Z,19.07
2018-10-05T17:11:45.002Z,18.52
2018-10-05T17:14:23.004Z,23.52
2018-10-05T17:16:51.402Z,22.00
2018-10-05T17:19:18.899Z,18.48
2018-10-05T17:21:50.756Z,19.73
2018-10-05T17:24:18.270Z,21.10
2018-10-05T17:26:46.970Z,19.00
2018-10-05T17:29:14.433Z,27.20
2018-10-05T17:31:46.695Z,18.37
2018-10-05T17:34:18.889Z,21.65
2018-10-05T17:36:46.436Z,18.20
2018-10-05T17:39:13.828Z,18.23
2018-10-05T17:41:42.315Z,17.82
2018-10-05T17:44:10.327Z,20.02
2018-10-05T17:46:38.782Z,22.65
2018-10-05T17:49:06.465Z,18.42
2018-10-05T17:51:36.037Z,18.85
2018-10-05T17:54:03.522Z,20.80
2018-10-05T17:56:31.043Z,20.70
2018-10-05T18:01:25.475Z,19.17
2018-10-05T18:03:57.471Z,18.10
2018-10-05T18:06:25.044Z,23.05
2018-10-05T18:08:52.660Z,16.35
2018-10-05T18:11:20.689Z,16.70
2018-10-05T18:13:52.683Z,19.12
2018-10-05T18:16:21.154Z,16.20
2018-10-05T18:18:59.242Z,18.37
2018-10-05T18:21:26.897Z,16.32
2018-10-05T18:23:54.906Z,18.25
2018-10-05T18:26:23.035Z,16.82
2018-10-05T18:28:54.574Z,19.23
2018-10-05T18:31:22.137Z,17.35
2018-10-05T18:33:49.681Z,16.50
2018-10-05T18:36:17.730Z,16.95
2018-10-05T18:38:45.854Z,21.48
2018-10-05T18:41:17.683Z,16.77
2018-10-05T18:43:49.703Z,18.65
2018-10-05T18:46:18.476Z,23.00
2018-10-05T18:48:46.196Z,16.23
2018-10-05T18:51:19.441Z,17.60
2018-10-05T18:53:47.538Z,16.55
2018-10-05T18:56:23.298Z,16.93
2018-10-05T18:58:50.873Z,16.35
2018-10-05T19:01:19.200Z,17.02
2018-10-05T19:03:47.094Z,18.27
2018-10-05T19:06:15.612Z,17.15
2018-10-05T19:08:43.335Z,16.90
2018-10-05T19:11:10.811Z,16.82
2018-10-05T19:13:38.432Z,15.70
2018-10-05T19:16:05.989Z,16.77
2018-10-05T19:18:38.149Z,17.25
2018-10-05T19:21:06.034Z,16.20
2018-10-05T19:23:33.831Z,17.67
2018-10-05T19:26:01.348Z,18.17
2018-10-05T19:28:29.663Z,15.80
2018-10-05T19:30:57.154Z,18.12
2018-10-05T19:33:29.158Z,17.15
2018-10-05T19:35:57.353Z,16.75
2018-10-05T19:38:24.886Z,16.40
2018-10-05T19:40:57.376Z,16.00
2018-10-05T19:43:24.779Z,16.25
2018-10-05T19:45:52.285Z,16.10
2018-10-05T19:48:20.193Z,17.05
2018-10-05T19:50:51.668Z,17.15
2018-10-05T19:53:20.183Z,15.75
2018-10-05T19:55:47.597Z,15.75
2018-10-05T19:58:19.244Z,17.40
2018-10-05T20:00:50.893Z,15.80
2018-10-05T20:03:18.960Z,17.10
2018-10-05T20:05:47.101Z,16.60
2018-10-05T20:10:46.627Z,17.52
2018-10-05T20:13:14.287Z,18.05
2018-10-05T20:15:45.717Z,17.57
2018-10-05T20:18:14.747Z,22.52
2018-10-05T20:20:43.962Z,23.65
2018-10-05T20:25:39.230Z,22.40
2018-10-05T20:28:07.648Z,22.02
2018-10-05T20:30:40.854Z,22.45
2018-10-05T20:33:09.870Z,19.35
2018-10-05T20:35:41.351Z,19.73
2018-10-05T20:38:08.955Z,19.75
2018-10-05T20:40:36.432Z,19.40
2018-10-05T20:43:04.014Z,17.70
2018-10-05T20:45:37.714Z,17.60
2018-10-05T20:48:05.303Z,15.90
2018-10-05T20:50:33.591Z,17.77
2018-10-05T20:53:02.605Z,15.43
2018-10-05T20:57:59.287Z,16.25
2018-10-05T21:00:27.279Z,16.40
2018-10-05T21:02:54.797Z,15.88
2018-10-05T21:05:23.489Z,16.27
2018-10-05T21:07:51.619Z,15.95
2018-10-05T21:10:19.109Z,16.15
2018-10-05T21:12:47.220Z,16.75
2018-10-05T21:15:17.545Z,16.93
2018-10-05T21:17:48.998Z,17.25
2018-10-05T21:20:16.460Z,18.50
2018-10-05T21:22:43.786Z,15.70
2018-10-05T21:25:11.698Z,17.70
2018-10-05T21:27:39.135Z,17.52
2018-10-05T21:30:06.690Z,16.60
2018-10-05T21:32:39.635Z,17.17
2018-10-05T21:35:07.472Z,19.40
2018-10-05T21:37:40.360Z,15.85
2018-10-05T21:40:07.855Z,16.70
2018-10-05T21:42:40.475Z,18.00
2018-10-05T21:45:12.731Z,18.50
2018-10-05T21:47:40.862Z,16.20
2018-10-05T21:50:08.269Z,16.82
2018-10-05T21:52:40.103Z,15.28
2018-10-05T21:55:12.427Z,16.20
2018-10-05T21:57:40.280Z,16.20
2018-10-05T22:00:08.587Z,16.32
2018-10-05T22:02:36.571Z,17.60
2018-10-05T22:05:05.116Z,16.62
2018-10-05T22:10:00.505Z,18.82
2018-10-05T22:12:28.471Z,18.85
2018-10-05T22:17:23.095Z,16.55
2018-10-05T22:19:50.517Z,16.90
2018-10-05T22:22:18.664Z,17.70
2018-10-05T22:24:48.794Z,17.73
2018-10-05T22:27:16.161Z,16.90
2018-10-05T22:29:44.259Z,17.60
2018-10-05T22:32:12.648Z,17.30
2018-10-05T22:34:40.158Z,18.98
2018-10-05T22:37:12.574Z,17.17
2018-10-05T22:39:40.246Z,17.12
2018-10-05T22:44:35.547Z,19.07
2018-10-05T22:47:03.175Z,16.65
2018-10-05T22:49:35.239Z,17.55
2018-10-05T22:52:02.673Z,21.15
2018-10-05T22:54:33.546Z,18.48
2018-10-05T22:59:31.393Z,18.95
2018-10-05T23:02:03.487Z,21.73
2018-10-05T23:04:36.524Z,21.17
2018-10-05T23:07:06.261Z,19.10
2018-10-05T23:09:33.717Z,18.73
2018-10-05T23:12:02.373Z,20.55
2018-10-05T23:14:30.059Z,17.10
2018-10-05T23:16:57.617Z,21.23
2018-10-05T23:19:25.058Z,21.27
2018-10-05T23:21:54.142Z,20.05
2018-10-05T23:24:21.771Z,18.37
2018-10-05T23:26:49.906Z,17.45
2018-10-05T23:29:18.639Z,18.98
2018-10-05T23:34:14.479Z,21.82
2018-10-05T23:36:43.368Z,18.40
2018-10-05T23:39:13.458Z,22.98
2018-10-05T23:41:40.952Z,21.23
2018-10-05T23:44:12.971Z,20.70
2018-10-05T23:46:41.379Z,17.27
2018-10-05T23:49:10.190Z,19.17
2018-10-05T23:51:37.667Z,21.23
2018-10-05T23:54:05.141Z,20.15
2018-10-05T23:56:32.714Z,19.15
2018-10-05T23:59:01.611Z,19.48
